Time,TemperatureF,DewpointF,PressureIn,WindDirection,WindDirectionDegrees,WindSpeedMPH,WindSpeedGustMPH,Humidity,HourlyPrecipIn,Conditions,Clouds,dailyrainin,SoftwareType,DateUTC
2013-02-21 00:09:00,22.1,13.8,30.25,ESE,102,5.0,13.0,70,0.00,,---,0.00,VWS V14.01,2013-02-21 06:09:00,
2013-02-21 00:24:00,22.0,14.1,30.25,NE,53,8.0,12.0,71,0.00,,---,0.00,VWS V14.01,2013-02-21 06:24:00,
2013-02-21 00:39:00,21.8,13.9,30.24,ENE,57,10.0,17.0,71,0.00,,---,0.00,VWS V14.01,2013-02-21 06:39:00,
2013-02-21 00:54:00,21.5,13.6,30.24,ESE,113,8.0,17.0,71,0.00,,---,0.00,VWS V14.01,2013-02-21 06:54:00,
2013-02-21 01:09:00,21.4,13.8,30.23,NE,47,8.0,18.0,72,0.00,,---,0.00,VWS V14.01,2013-02-21 07:09:00,
2013-02-21 01:24:00,21.5,13.9,30.24,ENE,61,6.0,18.0,72,0.00,,---,0.00,VWS V14.01,2013-02-21 07:24:00,
2013-02-21 01:39:00,21.4,13.8,30.23,ENE,74,5.0,15.0,72,0.00,,---,0.00,VWS V14.01,2013-02-21 07:39:00,
2013-02-21 01:54:00,21.2,13.6,30.22,ENE,59,7.0,19.0,72,0.00,,---,0.00,VWS V14.01,2013-02-21 07:54:00,
2013-02-21 02:09:00,21.1,13.8,30.22,East,79,15.0,16.0,73,0.00,,---,0.00,VWS V14.01,2013-02-21 08:09:00,
2013-02-21 02:24:00,20.8,13.5,30.19,NE,53,13.0,19.0,73,0.00,,---,0.00,VWS V14.01,2013-02-21 08:24:00,
2013-02-21 02:39:00,20.6,13.6,30.15,NE,55,13.0,19.0,74,0.00,,---,0.00,VWS V14.01,2013-02-21 08:39:00,
2013-02-21 02:54:00,20.4,13.4,30.16,NE,44,12.0,22.0,74,0.00,,---,0.00,VWS V14.01,2013-02-21 08:54:00,
2013-02-21 03:09:00,20.6,13.6,30.18,NE,55,8.0,19.0,74,0.00,,---,0.00,VWS V14.01,2013-02-21 09:09:00,
2013-02-21 03:24:00,20.8,13.8,30.17,NE,55,10.0,15.0,74,0.00,,---,0.00,VWS V14.01,2013-02-21 09:24:00,
2013-02-21 03:39:00,20.9,14.2,30.18,NE,49,3.0,14.0,75,0.00,,---,0.00,VWS V14.01,2013-02-21 09:39:00,
2013-02-21 03:54:00,20.9,13.9,30.14,ENE,57,8.0,16.0,74,0.00,,---,0.00,VWS V14.01,2013-02-21 09:54:00,
2013-02-21 04:09:00,20.8,13.8,30.14,NE,51,13.0,15.0,74,0.00,,---,0.00,VWS V14.01,2013-02-21 10:09:00,
2013-02-21 04:24:00,20.8,14.1,30.13,East,80,3.0,18.0,75,0.00,,---,0.00,VWS V14.01,2013-02-21 10:24:00,
2013-02-21 04:39:00,20.9,14.2,30.12,ENE,68,6.0,17.0,75,0.00,,---,0.00,VWS V14.01,2013-02-21 10:39:00,
2013-02-21 04:54:00,21.2,14.2,30.13,East,87,5.0,15.0,74,0.00,,---,0.00,VWS V14.01,2013-02-21 10:54:00,
2013-02-21 05:09:00,21.4,14.4,30.12,East,90,11.0,17.0,74,0.00,,---,0.00,VWS V14.01,2013-02-21 11:09:00,
2013-02-21 05:24:00,21.6,14.3,30.11,ESE,119,9.0,20.0,73,0.00,,---,0.00,VWS V14.01,2013-02-21 11:24:00,
2013-02-21 05:39:00,21.7,14.4,30.08,East,82,6.0,21.0,73,0.00,,---,0.00,VWS V14.01,2013-02-21 11:39:00,
2013-02-21 05:54:00,21.8,14.2,30.09,ESE,105,6.0,21.0,72,0.00,,---,0.00,VWS V14.01,2013-02-21 11:54:00,
2013-02-21 06:09:00,22.1,14.1,30.11,ENE,73,4.0,15.0,71,0.00,,---,0.00,VWS V14.01,2013-02-21 12:09:00,
2013-02-21 06:24:00,22.2,14.2,30.09,East,82,8.0,18.0,71,0.00,,---,0.00,VWS V14.01,2013-02-21 12:24:00,
2013-02-21 06:39:00,22.2,14.2,30.07,NE,47,14.0,17.0,71,0.00,,---,0.00,VWS V14.01,2013-02-21 12:39:00,
2013-02-21 06:54:00,22.3,14.3,30.07,NE,55,8.0,23.0,71,0.00,,---,0.00,VWS V14.01,2013-02-21 12:54:00,
2013-02-21 07:09:00,22.5,14.9,30.08,ENE,63,10.0,17.0,72,0.00,,---,0.00,VWS V14.01,2013-02-21 13:09:00,
2013-02-21 07:24:00,22.5,14.9,30.09,SE,126,4.0,17.0,72,0.00,,---,0.00,VWS V14.01,2013-02-21 13:24:00,
2013-02-21 07:39:00,22.3,15.6,30.08,ESE,117,7.0,16.0,75,0.00,,---,0.00,VWS V14.01,2013-02-21 13:39:00,
2013-02-21 07:54:00,21.9,16.7,30.10,NE,38,8.0,15.0,80,0.00,,---,0.00,VWS V14.01,2013-02-21 13:54:00,
2013-02-21 08:09:00,21.1,17.6,30.11,ENE,74,8.0,18.0,86,0.00,,---,0.00,VWS V14.01,2013-02-21 14:09:00,
2013-02-21 08:24:00,20.8,18.1,30.08,NE,44,19.0,19.0,89,0.00,,---,0.00,VWS V14.01,2013-02-21 14:24:00,
2013-02-21 08:39:00,20.4,17.9,30.08,ESE,105,16.0,19.0,90,0.00,,---,0.00,VWS V14.01,2013-02-21 14:39:00,
2013-02-21 08:54:00,20.4,18.2,30.08,ENE,58,11.0,22.0,91,0.00,,---,0.00,VWS V14.01,2013-02-21 14:54:00,
2013-02-21 09:09:00,20.6,18.4,30.08,East,87,6.0,19.0,91,0.00,,---,0.00,VWS V14.01,2013-02-21 15:09:00,
2013-02-21 09:24:00,20.5,18.3,30.05,ENE,63,11.0,21.0,91,0.00,,---,0.00,VWS V14.01,2013-02-21 15:24:00,
2013-02-21 09:39:00,20.5,18.5,30.05,NE,40,12.0,22.0,92,0.00,,---,0.00,VWS V14.01,2013-02-21 15:39:00,
2013-02-21 09:54:00,20.5,18.5,30.01,NE,47,15.0,26.0,92,0.00,,---,0.00,VWS V14.01,2013-02-21 15:54:00,
2013-02-21 10:09:00,20.4,18.5,29.98,ENE,74,20.0,28.0,92,0.00,,---,0.00,VWS V14.01,2013-02-21 16:09:00,
2013-02-21 10:24:00,20.6,18.6,29.99,ESE,107,12.0,22.0,92,0.00,,---,0.00,VWS V14.01,2013-02-21 16:24:00,
2013-02-21 10:39:00,20.8,18.9,29.95,ENE,71,18.0,27.0,92,0.00,,---,0.00,VWS V14.01,2013-02-21 16:39:00,
2013-02-21 10:54:00,21.1,19.1,29.94,NE,36,12.0,28.0,92,0.00,,---,0.00,VWS V14.01,2013-02-21 16:54:00,
2013-02-21 11:09:00,21.3,19.6,29.93,ENE,68,15.0,27.0,93,0.00,,---,0.00,VWS V14.01,2013-02-21 17:09:00,
2013-02-21 11:24:00,21.6,19.9,29.93,East,90,7.0,30.0,93,0.00,,---,0.00,VWS V14.01,2013-02-21 17:24:00,
2013-02-21 11:39:00,21.9,20.2,29.93,ENE,60,15.0,27.0,93,0.00,,---,0.00,VWS V14.01,2013-02-21 17:39:00,
2013-02-21 11:54:00,22.2,20.5,29.92,ENE,67,11.0,25.0,93,0.00,,---,0.00,VWS V14.01,2013-02-21 17:54:00,
2013-02-21 12:09:00,22.5,20.8,29.92,ENE,67,17.0,21.0,93,0.00,,---,0.00,VWS V14.01,2013-02-21 18:09:00,
2013-02-21 12:24:00,22.9,21.2,29.90,NE,42,12.0,23.0,93,0.00,,---,0.00,VWS V14.01,2013-02-21 18:24:00,
2013-02-21 12:39:00,23.2,21.5,29.89,East,80,3.0,21.0,93,0.00,,---,0.00,VWS V14.01,2013-02-21 18:39:00,
2013-02-21 12:54:00,23.4,21.7,29.88,ENE,66,6.0,20.0,93,0.00,,---,0.00,VWS V14.01,2013-02-21 18:54:00,
2013-02-21 13:09:00,23.5,21.8,29.88,ENE,76,4.0,21.0,93,0.00,,---,0.00,VWS V14.01,2013-02-21 19:09:00,
2013-02-21 13:24:00,23.6,21.9,29.87,ESE,121,19.0,25.0,93,0.00,,---,0.00,VWS V14.01,2013-02-21 19:24:00,
2013-02-21 13:39:00,23.7,22.0,29.86,ESE,121,8.0,24.0,93,0.00,,---,0.00,VWS V14.01,2013-02-21 19:39:00,
2013-02-21 13:54:00,23.8,22.1,29.85,SE,126,8.0,23.0,93,0.00,,---,0.00,VWS V14.01,2013-02-21 19:54:00,
2013-02-21 14:09:00,23.8,22.1,29.85,ENE,57,10.0,20.0,93,0.00,,---,0.00,VWS V14.01,2013-02-21 20:09:00,
2013-02-21 14:24:00,23.7,22.0,29.85,East,92,13.0,20.0,93,0.00,,---,0.00,VWS V14.01,2013-02-21 20:24:00,
2013-02-21 14:39:00,23.5,21.8,29.84,ENE,60,7.0,22.0,93,0.00,,---,0.00,VWS V14.01,2013-02-21 20:39:00,
2013-02-21 14:54:00,23.5,21.8,29.84,East,83,12.0,19.0,93,0.00,,---,0.00,VWS V14.01,2013-02-21 20:54:00,
2013-02-21 15:09:00,23.6,21.9,29.83,ENE,57,12.0,21.0,93,0.00,,---,0.00,VWS V14.01,2013-02-21 21:09:00,
2013-02-21 15:24:00,23.9,22.4,29.83,East,83,6.0,15.0,94,0.00,,---,0.00,VWS V14.01,2013-02-21 21:24:00,
2013-02-21 15:39:00,24.0,22.5,29.82,ENE,78,7.0,17.0,94,0.00,,---,0.00,VWS V14.01,2013-02-21 21:39:00,
2013-02-21 15:54:00,24.1,22.6,29.82,ESE,117,8.0,18.0,94,0.00,,---,0.00,VWS V14.01,2013-02-21 21:54:00,
2013-02-21 16:10:00,24.1,22.6,29.82,ESE,113,6.0,18.0,94,0.00,,---,0.00,VWS V14.01,2013-02-21 22:10:00,
2013-02-21 16:24:00,24.0,22.5,29.82,ENE,76,6.0,14.0,94,0.00,,---,0.00,VWS V14.01,2013-02-21 22:24:00,
2013-02-21 16:39:00,23.9,22.4,29.81,ENE,58,10.0,18.0,94,0.00,,---,0.00,VWS V14.01,2013-02-21 22:39:00,
2013-02-21 16:54:00,23.9,22.4,29.80,ENE,57,8.0,18.0,94,0.00,,---,0.00,VWS V14.01,2013-02-21 22:54:00,
2013-02-21 17:09:00,23.8,22.3,29.81,East,86,6.0,13.0,94,0.00,,---,0.00,VWS V14.01,2013-02-21 23:09:00,
2013-02-21 17:24:00,23.7,22.2,29.81,ENE,73,6.0,12.0,94,0.00,,---,0.00,VWS V14.01,2013-02-21 23:24:00,
2013-02-21 17:39:00,23.6,22.1,29.82,ENE,59,3.0,11.0,94,0.00,,---,0.00,VWS V14.01,2013-02-21 23:39:00,
2013-02-21 17:54:00,23.6,22.1,29.81,NE,56,6.0,10.0,94,0.00,,---,0.00,VWS V14.01,2013-02-21 23:54:00,
2013-02-21 18:09:00,23.6,22.1,29.81,ENE,62,4.0,10.0,94,0.00,,---,0.00,VWS V14.01,2013-02-22 00:09:00,
2013-02-21 18:24:00,23.6,22.1,29.81,NE,54,1.0,7.0,94,0.00,,---,0.00,VWS V14.01,2013-02-22 00:24:00,
2013-02-21 18:39:00,23.5,22.0,29.81,ENE,59,2.0,8.0,94,0.00,,---,0.00,VWS V14.01,2013-02-22 00:39:00,
2013-02-21 18:54:00,23.6,22.1,29.81,NE,49,3.0,8.0,94,0.00,,---,0.00,VWS V14.01,2013-02-22 00:54:00,
2013-02-21 19:09:00,23.7,22.2,29.81,NE,50,6.0,11.0,94,0.00,,---,0.00,VWS V14.01,2013-02-22 01:09:00,
2013-02-21 19:24:00,23.7,22.2,29.80,NE,50,7.0,11.0,94,0.00,,---,0.00,VWS V14.01,2013-02-22 01:24:00,
2013-02-21 19:39:00,23.8,22.3,29.80,ENE,57,3.0,11.0,94,0.00,,---,0.00,VWS V14.01,2013-02-22 01:39:00,
2013-02-21 19:54:00,23.8,22.3,29.80,NE,47,5.0,11.0,94,0.00,,---,0.00,VWS V14.01,2013-02-22 01:54:00,
2013-02-21 20:09:00,23.9,22.4,29.80,ENE,62,3.0,8.0,94,0.00,,---,0.00,VWS V14.01,2013-02-22 02:09:00,
2013-02-21 20:24:00,24.0,22.5,29.81,NE,53,2.0,8.0,94,0.00,,---,0.00,VWS V14.01,2013-02-22 02:24:00,
2013-02-21 20:39:00,24.1,22.6,29.81,NE,46,4.0,7.0,94,0.00,,---,0.00,VWS V14.01,2013-02-22 02:39:00,
2013-02-21 20:54:00,24.0,22.5,29.80,NE,49,5.0,10.0,94,0.00,,---,0.00,VWS V14.01,2013-02-22 02:54:00,
2013-02-21 21:09:00,24.0,22.5,29.80,NE,49,4.0,7.0,94,0.00,,---,0.00,VWS V14.01,2013-02-22 03:09:00,
2013-02-21 21:24:00,23.9,22.4,29.79,NE,49,6.0,8.0,94,0.00,,---,0.00,VWS V14.01,2013-02-22 03:24:00,
2013-02-21 21:39:00,23.7,22.2,29.79,NE,38,3.0,7.0,94,0.00,,---,0.00,VWS V14.01,2013-02-22 03:39:00,
2013-02-21 21:54:00,23.5,22.0,29.80,NE,49,2.0,6.0,94,0.00,,---,0.00,VWS V14.01,2013-02-22 03:54:00,
2013-02-21 22:09:00,23.5,22.0,29.79,NE,53,2.0,7.0,94,0.00,,---,0.00,VWS V14.01,2013-02-22 04:09:00,
2013-02-21 22:24:00,23.5,22.0,29.79,NE,51,5.0,9.0,94,0.00,,---,0.00,VWS V14.01,2013-02-22 04:24:00,
2013-02-21 22:39:00,23.5,22.0,29.79,NE,50,2.0,6.0,94,0.00,,---,0.00,VWS V14.01,2013-02-22 04:39:00,
2013-02-21 22:54:00,23.5,22.0,29.79,NE,47,2.0,6.0,94,0.00,,---,0.00,VWS V14.01,2013-02-22 04:54:00,
2013-02-21 23:09:00,23.6,22.1,29.79,NE,48,1.0,5.0,94,0.00,,---,0.00,VWS V14.01,2013-02-22 05:09:00,
2013-02-21 23:25:00,23.6,22.1,29.79,NE,48,1.0,3.0,94,0.00,,---,0.00,VWS V14.01,2013-02-22 05:25:00,
2013-02-21 23:39:00,23.6,22.1,29.79,NE,48,0.0,2.0,94,0.00,,---,0.00,VWS V14.01,2013-02-22 05:39:00,
2013-02-21 23:55:00,23.6,22.1,29.79,NE,48,0.0,1.0,94,0.00,,---,0.00,VWS V14.01,2013-02-22 05:55:00,